sensor_id;sensor_type;location;lat;lon;timestamp;pressure;altitude;pressure_sealevel;temperature;humidity
49709;BME280;35601;55.902;13.606;2023-03-15T00:01:45;99148.69;;;-2.41;66.50
49709;BME280;35601;55.902;13.606;2023-03-15T00:04:11;99155.52;;;-2.54;66.57
49709;BME280;35601;55.902;13.606;2023-03-15T00:06:36;99158.83;;;-2.93;66.72
49709;BME280;35601;55.902;13.606;2023-03-15T00:09:02;99161.21;;;-2.82;67.04
49709;BME280;35601;55.902;13.606;2023-03-15T00:11:28;99167.54;;;-3.00;67.64
49709;BME280;35601;55.902;13.606;2023-03-15T00:13:53;99174.45;;;-2.83;68.06
49709;BME280;35601;55.902;13.606;2023-03-15T00:16:18;99178.49;;;-3.17;68.22
49709;BME280;35601;55.902;13.606;2023-03-15T00:18:44;99180.10;;;-3.28;68.49
49709;BME280;35601;55.902;13.606;2023-03-15T00:21:09;99185.96;;;-3.38;68.61
49709;BME280;35601;55.902;13.606;2023-03-15T00:23:34;99190.12;;;-3.26;68.83
49709;BME280;35601;55.902;13.606;2023-03-15T00:25:59;99194.21;;;-3.42;69.21
49709;BME280;35601;55.902;13.606;2023-03-15T00:28:25;99199.58;;;-3.84;69.92
49709;BME280;35601;55.902;13.606;2023-03-15T00:31:02;99203.64;;;-3.36;69.92
49709;BME280;35601;55.902;13.606;2023-03-15T00:33:17;99205.01;;;-3.72;70.32
49709;BME280;35601;55.902;13.606;2023-03-15T00:35:43;99212.68;;;-3.52;70.51
49709;BME280;35601;55.902;13.606;2023-03-15T00:38:08;99219.28;;;-3.57;70.69
49709;BME280;35601;55.902;13.606;2023-03-15T00:40:32;99221.70;;;-3.98;70.88
49709;BME280;35601;55.902;13.606;2023-03-15T00:42:58;99223.51;;;-3.97;70.84
49709;BME280;35601;55.902;13.606;2023-03-15T00:45:24;99225.28;;;-3.98;71.34
49709;BME280;35601;55.902;13.606;2023-03-15T00:47:49;99232.43;;;-4.41;72.43
49709;BME280;35601;55.902;13.606;2023-03-15T00:50:14;99234.54;;;-4.12;72.76
49709;BME280;35601;55.902;13.606;2023-03-15T00:52:40;99236.39;;;-4.09;73.01
49709;BME280;35601;55.902;13.606;2023-03-15T00:55:05;99243.46;;;-4.05;72.79
49709;BME280;35601;55.902;13.606;2023-03-15T00:57:31;99246.40;;;-4.30;72.42
49709;BME280;35601;55.902;13.606;2023-03-15T00:59:56;99243.95;;;-4.00;72.70
49709;BME280;35601;55.902;13.606;2023-03-15T01:02:21;99246.69;;;-4.38;73.36
49709;BME280;35601;55.902;13.606;2023-03-15T01:04:47;99252.19;;;-4.30;73.03
49709;BME280;35601;55.902;13.606;2023-03-15T01:07:12;99260.80;;;-4.10;73.46
49709;BME280;35601;55.902;13.606;2023-03-15T01:09:38;99266.13;;;-4.34;74.23
49709;BME280;35601;55.902;13.606;2023-03-15T01:12:03;99274.14;;;-4.35;74.10
49709;BME280;35601;55.902;13.606;2023-03-15T01:14:28;99276.09;;;-4.40;74.64
49709;BME280;35601;55.902;13.606;2023-03-15T01:16:54;99281.22;;;-4.42;75.44
49709;BME280;35601;55.902;13.606;2023-03-15T01:19:19;99286.72;;;-4.10;76.25
49709;BME280;35601;55.902;13.606;2023-03-15T01:21:45;99287.03;;;-3.83;77.68
49709;BME280;35601;55.902;13.606;2023-03-15T01:24:12;99292.21;;;-4.22;80.38
49709;BME280;35601;55.902;13.606;2023-03-15T01:26:36;99291.87;;;-3.61;81.28
49709;BME280;35601;55.902;13.606;2023-03-15T01:29:01;99292.97;;;-3.96;82.80
49709;BME280;35601;55.902;13.606;2023-03-15T01:31:28;99291.47;;;-3.77;83.18
49709;BME280;35601;55.902;13.606;2023-03-15T01:33:53;99292.01;;;-3.85;83.94
49709;BME280;35601;55.902;13.606;2023-03-15T01:36:18;99292.63;;;-3.49;83.85
49709;BME280;35601;55.902;13.606;2023-03-15T01:38:43;99294.66;;;-3.34;84.53
49709;BME280;35601;55.902;13.606;2023-03-15T01:41:10;99299.96;;;-3.21;84.18
49709;BME280;35601;55.902;13.606;2023-03-15T01:43:34;99300.96;;;-2.63;84.00
49709;BME280;35601;55.902;13.606;2023-03-15T01:46:05;99308.41;;;-3.07;84.13
49709;BME280;35601;55.902;13.606;2023-03-15T01:48:28;99309.72;;;-2.96;83.86
49709;BME280;35601;55.902;13.606;2023-03-15T01:50:51;99315.19;;;-2.85;83.37
49709;BME280;35601;55.902;13.606;2023-03-15T01:53:16;99320.07;;;-2.73;83.07
49709;BME280;35601;55.902;13.606;2023-03-15T01:55:41;99326.04;;;-2.89;82.30
49709;BME280;35601;55.902;13.606;2023-03-15T01:58:07;99325.66;;;-2.57;82.32
49709;BME280;35601;55.902;13.606;2023-03-15T02:00:34;99329.89;;;-2.63;81.40
49709;BME280;35601;55.902;13.606;2023-03-15T02:03:02;99332.84;;;-2.81;80.91
49709;BME280;35601;55.902;13.606;2023-03-15T02:05:26;99333.85;;;-2.57;80.52
49709;BME280;35601;55.902;13.606;2023-03-15T02:07:49;99342.49;;;-2.54;80.24
49709;BME280;35601;55.902;13.606;2023-03-15T02:10:16;99345.45;;;-2.81;80.38
49709;BME280;35601;55.902;13.606;2023-03-15T02:12:44;99349.98;;;-2.55;80.22
49709;BME280;35601;55.902;13.606;2023-03-15T02:15:06;99355.67;;;-2.58;80.37
49709;BME280;35601;55.902;13.606;2023-03-15T02:17:36;99356.67;;;-2.33;80.35
49709;BME280;35601;55.902;13.606;2023-03-15T02:19:59;99359.57;;;-2.51;80.14
49709;BME280;35601;55.902;13.606;2023-03-15T02:22:28;99360.44;;;-2.52;80.04
49709;BME280;35601;55.902;13.606;2023-03-15T02:24:49;99364.19;;;-2.47;79.77
49709;BME280;35601;55.902;13.606;2023-03-15T02:27:11;99368.56;;;-2.45;79.66
49709;BME280;35601;55.902;13.606;2023-03-15T02:29:36;99368.38;;;-2.43;79.64
49709;BME280;35601;55.902;13.606;2023-03-15T02:32:02;99373.18;;;-2.66;79.53
49709;BME280;35601;55.902;13.606;2023-03-15T02:34:27;99376.33;;;-2.48;78.98
49709;BME280;35601;55.902;13.606;2023-03-15T02:36:53;99382.48;;;-2.48;79.24
49709;BME280;35601;55.902;13.606;2023-03-15T02:39:19;99382.94;;;-2.45;78.95
49709;BME280;35601;55.902;13.606;2023-03-15T02:41:48;99385.75;;;-2.63;79.26
49709;BME280;35601;55.902;13.606;2023-03-15T02:44:13;99388.74;;;-2.63;79.17
49709;BME280;35601;55.902;13.606;2023-03-15T02:46:34;99392.70;;;-2.56;78.39
49709;BME280;35601;55.902;13.606;2023-03-15T02:48:59;99399.60;;;-2.87;78.07
49709;BME280;35601;55.902;13.606;2023-03-15T02:51:28;99401.92;;;-2.52;77.75
49709;BME280;35601;55.902;13.606;2023-03-15T02:53:51;99406.58;;;-2.47;77.18
49709;BME280;35601;55.902;13.606;2023-03-15T02:56:15;99405.98;;;-2.29;76.91
49709;BME280;35601;55.902;13.606;2023-03-15T02:58:41;99409.59;;;-2.73;76.25
49709;BME280;35601;55.902;13.606;2023-03-15T03:01:05;99415.16;;;-2.50;76.41
49709;BME280;35601;55.902;13.606;2023-03-15T03:03:32;99416.19;;;-2.52;76.09
49709;BME280;35601;55.902;13.606;2023-03-15T03:05:56;99421.99;;;-2.49;75.87
49709;BME280;35601;55.902;13.606;2023-03-15T03:08:21;99423.99;;;-2.51;75.82
49709;BME280;35601;55.902;13.606;2023-03-15T03:10:47;99427.29;;;-2.56;75.81
49709;BME280;35601;55.902;13.606;2023-03-15T03:13:12;99427.62;;;-2.34;75.64
49709;BME280;35601;55.902;13.606;2023-03-15T03:15:38;99435.92;;;-2.60;75.57
49709;BME280;35601;55.902;13.606;2023-03-15T03:18:03;99440.02;;;-2.33;75.29
49709;BME280;35601;55.902;13.606;2023-03-15T03:20:30;99440.95;;;-2.75;75.76
49709;BME280;35601;55.902;13.606;2023-03-15T03:22:55;99441.61;;;-2.78;75.63
49709;BME280;35601;55.902;13.606;2023-03-15T03:25:21;99448.53;;;-2.58;75.40
49709;BME280;35601;55.902;13.606;2023-03-15T03:27:45;99454.59;;;-2.78;75.31
49709;BME280;35601;55.902;13.606;2023-03-15T03:30:12;99460.47;;;-2.46;75.09
49709;BME280;35601;55.902;13.606;2023-03-15T03:32:35;99463.46;;;-2.37;74.44
49709;BME280;35601;55.902;13.606;2023-03-15T03:35:01;99462.67;;;-2.47;74.66
49709;BME280;35601;55.902;13.606;2023-03-15T03:37:27;99468.73;;;-2.42;74.31
49709;BME280;35601;55.902;13.606;2023-03-15T03:39:52;99472.63;;;-2.74;74.45
49709;BME280;35601;55.902;13.606;2023-03-15T03:42:17;99478.54;;;-2.54;74.65
49709;BME280;35601;55.902;13.606;2023-03-15T03:44:44;99485.04;;;-2.43;74.25
49709;BME280;35601;55.902;13.606;2023-03-15T03:47:08;99494.83;;;-2.44;74.06
49709;BME280;35601;55.902;13.606;2023-03-15T03:49:33;99501.84;;;-2.46;74.24
49709;BME280;35601;55.902;13.606;2023-03-15T03:51:59;99500.28;;;-2.44;74.26
49709;BME280;35601;55.902;13.606;2023-03-15T03:54:25;99502.58;;;-2.68;73.93
49709;BME280;35601;55.902;13.606;2023-03-15T03:56:50;99502.98;;;-2.39;73.73
49709;BME280;35601;55.902;13.606;2023-03-15T03:59:15;99503.79;;;-2.90;73.58
49709;BME280;35601;55.902;13.606;2023-03-15T04:01:41;99509.34;;;-2.63;73.08
49709;BME280;35601;55.902;13.606;2023-03-15T04:04:06;99515.13;;;-2.35;73.10
49709;BME280;35601;55.902;13.606;2023-03-15T04:06:31;99518.86;;;-2.81;72.86
49709;BME280;35601;55.902;13.606;2023-03-15T04:08:56;99522.84;;;-2.52;72.57
49709;BME280;35601;55.902;13.606;2023-03-15T04:11:22;99528.06;;;-2.48;72.38
49709;BME280;35601;55.902;13.606;2023-03-15T04:13:47;99531.22;;;-2.65;71.95
49709;BME280;35601;55.902;13.606;2023-03-15T04:16:12;99535.69;;;-2.78;71.44
49709;BME280;35601;55.902;13.606;2023-03-15T04:18:37;99538.53;;;-2.55;70.86
49709;BME280;35601;55.902;13.606;2023-03-15T04:21:03;99541.58;;;-2.65;70.97
49709;BME280;35601;55.902;13.606;2023-03-15T04:23:28;99546.33;;;-2.89;70.56
49709;BME280;35601;55.902;13.606;2023-03-15T04:25:53;99544.38;;;-2.69;71.36
49709;BME280;35601;55.902;13.606;2023-03-15T04:28:20;99547.06;;;-3.23;72.26
49709;BME280;35601;55.902;13.606;2023-03-15T04:30:46;99546.49;;;-2.68;72.57
49709;BME280;35601;55.902;13.606;2023-03-15T04:33:11;99547.84;;;-3.10;72.05
49709;BME280;35601;55.902;13.606;2023-03-15T04:35:36;99550.01;;;-2.67;73.17
49709;BME280;35601;55.902;13.606;2023-03-15T04:38:01;99557.55;;;-2.82;72.68
49709;BME280;35601;55.902;13.606;2023-03-15T04:40:26;99558.79;;;-2.83;72.70
49709;BME280;35601;55.902;13.606;2023-03-15T04:42:53;99560.84;;;-2.79;72.76
49709;BME280;35601;55.902;13.606;2023-03-15T04:45:17;99562.73;;;-2.91;73.11
49709;BME280;35601;55.902;13.606;2023-03-15T04:47:42;99564.68;;;-2.62;73.45
49709;BME280;35601;55.902;13.606;2023-03-15T04:50:08;99566.70;;;-2.85;72.74
49709;BME280;35601;55.902;13.606;2023-03-15T04:52:33;99566.47;;;-2.91;73.08
49709;BME280;35601;55.902;13.606;2023-03-15T04:54:58;99573.86;;;-2.95;73.19
49709;BME280;35601;55.902;13.606;2023-03-15T04:57:23;99578.47;;;-2.97;73.58
49709;BME280;35601;55.902;13.606;2023-03-15T04:59:49;99576.50;;;-2.76;73.72
49709;BME280;35601;55.902;13.606;2023-03-15T05:02:15;99577.62;;;-2.74;73.66
49709;BME280;35601;55.902;13.606;2023-03-15T05:04:39;99576.31;;;-2.68;73.27
49709;BME280;35601;55.902;13.606;2023-03-15T05:07:05;99578.65;;;-2.77;73.77
49709;BME280;35601;55.902;13.606;2023-03-15T05:09:34;99583.29;;;-2.87;74.39
49709;BME280;35601;55.902;13.606;2023-03-15T05:11:57;99583.06;;;-2.84;73.87
49709;BME280;35601;55.902;13.606;2023-03-15T05:14:22;99593.35;;;-3.75;73.66
49709;BME280;35601;55.902;13.606;2023-03-15T05:16:46;99594.14;;;-2.90;73.18
49709;BME280;35601;55.902;13.606;2023-03-15T05:19:13;99598.99;;;-2.63;73.36
49709;BME280;35601;55.902;13.606;2023-03-15T05:21:38;99601.87;;;-2.86;73.39
49709;BME280;35601;55.902;13.606;2023-03-15T05:24:03;99601.77;;;-2.77;73.13
49709;BME280;35601;55.902;13.606;2023-03-15T05:26:28;99607.01;;;-2.52;73.14
49709;BME280;35601;55.902;13.606;2023-03-15T05:28:53;99609.89;;;-2.52;73.20
49709;BME280;35601;55.902;13.606;2023-03-15T05:31:20;99618.84;;;-2.69;73.44
49709;BME280;35601;55.902;13.606;2023-03-15T05:33:45;99623.35;;;-2.39;73.27
49709;BME280;35601;55.902;13.606;2023-03-15T05:36:09;99627.04;;;-2.28;73.29
49709;BME280;35601;55.902;13.606;2023-03-15T05:38:36;99631.73;;;-2.50;73.30
49709;BME280;35601;55.902;13.606;2023-03-15T05:41:01;99636.66;;;-2.63;73.71
49709;BME280;35601;55.902;13.606;2023-03-15T05:43:28;99639.30;;;-2.46;73.33
49709;BME280;35601;55.902;13.606;2023-03-15T05:45:53;99642.56;;;-2.45;73.54
49709;BME280;35601;55.902;13.606;2023-03-15T05:48:16;99641.52;;;-2.40;73.08
49709;BME280;35601;55.902;13.606;2023-03-15T05:50:41;99648.40;;;-2.38;72.32
49709;BME280;35601;55.902;13.606;2023-03-15T05:53:08;99657.54;;;-2.13;72.14
49709;BME280;35601;55.902;13.606;2023-03-15T05:55:33;99661.18;;;-2.47;72.03
49709;BME280;35601;55.902;13.606;2023-03-15T05:57:58;99665.25;;;-2.50;71.66
49709;BME280;35601;55.902;13.606;2023-03-15T06:00:23;99667.58;;;-2.32;71.49
49709;BME280;35601;55.902;13.606;2023-03-15T06:02:48;99675.33;;;-2.44;71.11
49709;BME280;35601;55.902;13.606;2023-03-15T06:05:14;99680.78;;;-2.21;70.99
49709;BME280;35601;55.902;13.606;2023-03-15T06:07:39;99687.53;;;-2.47;71.61
49709;BME280;35601;55.902;13.606;2023-03-15T06:10:05;99690.30;;;-2.45;71.59
49709;BME280;35601;55.902;13.606;2023-03-15T06:12:29;99693.25;;;-2.23;71.61
49709;BME280;35601;55.902;13.606;2023-03-15T06:14:55;99693.74;;;-2.48;71.76
49709;BME280;35601;55.902;13.606;2023-03-15T06:17:20;99697.23;;;-2.39;71.72
49709;BME280;35601;55.902;13.606;2023-03-15T06:19:45;99696.30;;;-2.35;72.01
49709;BME280;35601;55.902;13.606;2023-03-15T06:22:11;99702.48;;;-2.29;71.70
49709;BME280;35601;55.902;13.606;2023-03-15T06:24:37;99708.95;;;-1.94;71.18
49709;BME280;35601;55.902;13.606;2023-03-15T06:27:02;99715.41;;;-1.92;70.96
49709;BME280;35601;55.902;13.606;2023-03-15T06:29:27;99720.25;;;-2.21;70.80
49709;BME280;35601;55.902;13.606;2023-03-15T06:31:53;99732.91;;;-2.33;70.72
49709;BME280;35601;55.902;13.606;2023-03-15T06:34:18;99731.06;;;-1.88;70.85
49709;BME280;35601;55.902;13.606;2023-03-15T06:36:43;99737.64;;;-2.02;70.67
49709;BME280;35601;55.902;13.606;2023-03-15T06:39:09;99741.35;;;-2.06;70.84
49709;BME280;35601;55.902;13.606;2023-03-15T06:41:35;99748.50;;;-2.00;71.16
49709;BME280;35601;55.902;13.606;2023-03-15T06:44:00;99754.15;;;-1.85;71.24
49709;BME280;35601;55.902;13.606;2023-03-15T06:46:24;99757.92;;;-2.28;72.15
49709;BME280;35601;55.902;13.606;2023-03-15T06:48:51;99765.45;;;-1.89;72.17
49709;BME280;35601;55.902;13.606;2023-03-15T06:51:15;99770.79;;;-1.87;72.33
49709;BME280;35601;55.902;13.606;2023-03-15T06:53:41;99772.56;;;-1.64;72.36
49709;BME280;35601;55.902;13.606;2023-03-15T06:56:06;99773.03;;;-2.00;71.67
49709;BME280;35601;55.902;13.606;2023-03-15T06:58:32;99776.27;;;-1.36;71.46
49709;BME280;35601;55.902;13.606;2023-03-15T07:00:58;99774.60;;;-1.55;71.21
49709;BME280;35601;55.902;13.606;2023-03-15T07:03:24;99775.37;;;-1.53;71.27
49709;BME280;35601;55.902;13.606;2023-03-15T07:05:49;99772.74;;;-1.65;70.85
49709;BME280;35601;55.902;13.606;2023-03-15T07:08:13;99775.14;;;-1.36;70.36
49709;BME280;35601;55.902;13.606;2023-03-15T07:10:39;99776.97;;;-1.13;70.16
49709;BME280;35601;55.902;13.606;2023-03-15T07:13:04;99783.01;;;-1.19;69.66
49709;BME280;35601;55.902;13.606;2023-03-15T07:15:30;99786.93;;;-2.49;68.80
49709;BME280;35601;55.902;13.606;2023-03-15T07:17:56;99791.29;;;-1.10;68.27
49709;BME280;35601;55.902;13.606;2023-03-15T07:20:20;99794.17;;;-1.15;68.49
49709;BME280;35601;55.902;13.606;2023-03-15T07:22:45;99791.11;;;-1.14;68.73
49709;BME280;35601;55.902;13.606;2023-03-15T07:25:12;99797.25;;;-0.78;69.25
49709;BME280;35601;55.902;13.606;2023-03-15T07:27:37;99800.33;;;-0.91;69.04
49709;BME280;35601;55.902;13.606;2023-03-15T07:30:01;99800.57;;;-0.94;69.21
49709;BME280;35601;55.902;13.606;2023-03-15T07:32:27;99800.79;;;-1.03;69.43
49709;BME280;35601;55.902;13.606;2023-03-15T07:34:52;99808.60;;;-0.63;68.91
49709;BME280;35601;55.902;13.606;2023-03-15T07:37:17;99813.59;;;-0.42;68.18
49709;BME280;35601;55.902;13.606;2023-03-15T07:39:42;99814.10;;;-0.31;68.11
49709;BME280;35601;55.902;13.606;2023-03-15T07:42:08;99818.54;;;-0.46;67.88
49709;BME280;35601;55.902;13.606;2023-03-15T07:44:33;99817.27;;;-0.59;67.52
49709;BME280;35601;55.902;13.606;2023-03-15T07:46:58;99817.18;;;-0.49;68.03
49709;BME280;35601;55.902;13.606;2023-03-15T07:49:23;99832.73;;;-0.61;68.61
49709;BME280;35601;55.902;13.606;2023-03-15T07:51:50;99826.67;;;-0.29;67.30
49709;BME280;35601;55.902;13.606;2023-03-15T07:54:15;99832.40;;;-0.29;67.29
49709;BME280;35601;55.902;13.606;2023-03-15T07:56:40;99835.24;;;-0.17;67.82
49709;BME280;35601;55.902;13.606;2023-03-15T07:59:05;99843.14;;;-0.11;67.63
49709;BME280;35601;55.902;13.606;2023-03-15T08:01:31;99845.46;;;0.05;66.50
49709;BME280;35601;55.902;13.606;2023-03-15T08:03:55;99844.71;;;-0.01;66.36
49709;BME280;35601;55.902;13.606;2023-03-15T08:06:20;99845.03;;;0.05;65.93
49709;BME280;35601;55.902;13.606;2023-03-15T08:08:46;99854.50;;;-0.10;65.59
49709;BME280;35601;55.902;13.606;2023-03-15T08:11:11;99857.72;;;0.15;66.31
49709;BME280;35601;55.902;13.606;2023-03-15T08:13:36;99862.96;;;0.10;65.53
49709;BME280;35601;55.902;13.606;2023-03-15T08:16:02;99863.50;;;0.22;65.24
49709;BME280;35601;55.902;13.606;2023-03-15T08:18:28;99871.07;;;0.15;64.81
49709;BME280;35601;55.902;13.606;2023-03-15T08:20:53;99872.76;;;0.24;65.32
49709;BME280;35601;55.902;13.606;2023-03-15T08:23:18;99878.52;;;0.29;65.16
49709;BME280;35601;55.902;13.606;2023-03-15T08:25:44;99878.61;;;0.24;64.29
49709;BME280;35601;55.902;13.606;2023-03-15T08:28:09;99885.01;;;0.52;65.05
49709;BME280;35601;55.902;13.606;2023-03-15T08:30:34;99885.75;;;0.42;64.29
49709;BME280;35601;55.902;13.606;2023-03-15T08:33:00;99885.11;;;0.52;63.49
49709;BME280;35601;55.902;13.606;2023-03-15T08:35:25;99890.98;;;0.46;64.07
49709;BME280;35601;55.902;13.606;2023-03-15T08:37:50;99892.87;;;0.33;64.07
49709;BME280;35601;55.902;13.606;2023-03-15T08:40:17;99896.93;;;0.41;63.02
49709;BME280;35601;55.902;13.606;2023-03-15T08:42:41;99900.22;;;0.62;63.14
49709;BME280;35601;55.902;13.606;2023-03-15T08:45:08;99909.02;;;0.33;63.70
49709;BME280;35601;55.902;13.606;2023-03-15T08:47:32;99909.14;;;0.61;62.99
49709;BME280;35601;55.902;13.606;2023-03-15T08:49:57;99910.32;;;0.32;63.33
49709;BME280;35601;55.902;13.606;2023-03-15T08:52:24;99906.43;;;0.40;63.95
49709;BME280;35601;55.902;13.606;2023-03-15T08:54:48;99916.01;;;0.43;64.48
49709;BME280;35601;55.902;13.606;2023-03-15T08:57:14;99913.93;;;0.74;63.86
49709;BME280;35601;55.902;13.606;2023-03-15T08:59:39;99917.75;;;0.74;63.86
49709;BME280;35601;55.902;13.606;2023-03-15T09:02:05;99920.27;;;1.03;63.02
49709;BME280;35601;55.902;13.606;2023-03-15T09:04:32;99932.14;;;0.82;62.08
49709;BME280;35601;55.902;13.606;2023-03-15T09:06:56;99939.15;;;0.96;63.15
49709;BME280;35601;55.902;13.606;2023-03-15T09:09:22;99942.93;;;0.94;62.03
49709;BME280;35601;55.902;13.606;2023-03-15T09:11:47;99946.22;;;1.08;62.53
49709;BME280;35601;55.902;13.606;2023-03-15T09:14:12;99950.32;;;0.54;62.73
49709;BME280;35601;55.902;13.606;2023-03-15T09:16:38;99952.37;;;0.58;62.66
49709;BME280;35601;55.902;13.606;2023-03-15T09:19:03;99955.77;;;0.98;64.08
49709;BME280;35601;55.902;13.606;2023-03-15T09:21:28;99958.79;;;0.62;62.84
49709;BME280;35601;55.902;13.606;2023-03-15T09:23:54;99955.36;;;1.19;61.84
49709;BME280;35601;55.902;13.606;2023-03-15T09:26:19;99954.68;;;1.24;62.22
49709;BME280;35601;55.902;13.606;2023-03-15T09:28:44;99959.40;;;1.45;60.81
49709;BME280;35601;55.902;13.606;2023-03-15T09:31:10;99962.06;;;1.75;60.72
49709;BME280;35601;55.902;13.606;2023-03-15T09:33:35;99963.95;;;1.83;58.97
49709;BME280;35601;55.902;13.606;2023-03-15T09:36:00;99964.48;;;1.79;58.49
49709;BME280;35601;55.902;13.606;2023-03-15T09:38:26;99976.50;;;1.82;57.67
49709;BME280;35601;55.902;13.606;2023-03-15T09:40:55;99973.79;;;1.60;56.80
49709;BME280;35601;55.902;13.606;2023-03-15T09:45:56;99979.67;;;1.91;56.85
49709;BME280;35601;55.902;13.606;2023-03-15T09:48:09;99984.41;;;1.86;57.31
49709;BME280;35601;55.902;13.606;2023-03-15T09:50:35;99985.59;;;1.69;57.32
49709;BME280;35601;55.902;13.606;2023-03-15T09:53:00;99991.36;;;2.01;55.29
49709;BME280;35601;55.902;13.606;2023-03-15T09:55:25;99987.46;;;2.07;55.14
49709;BME280;35601;55.902;13.606;2023-03-15T09:57:51;99987.52;;;2.19;53.32
49709;BME280;35601;55.902;13.606;2023-03-15T10:00:19;99989.29;;;2.60;52.44
49709;BME280;35601;55.902;13.606;2023-03-15T10:02:46;99994.77;;;2.17;55.48
49709;BME280;35601;55.902;13.606;2023-03-15T10:05:07;99995.46;;;2.33;54.73
49709;BME280;35601;55.902;13.606;2023-03-15T10:07:30;100000.82;;;2.73;52.63
49709;BME280;35601;55.902;13.606;2023-03-15T10:09:55;99998.83;;;2.84;50.19
49709;BME280;35601;55.902;13.606;2023-03-15T10:12:24;99998.35;;;3.06;51.13
49709;BME280;35601;55.902;13.606;2023-03-15T10:15:00;100005.21;;;2.88;50.08
49709;BME280;35601;55.902;13.606;2023-03-15T10:17:14;100007.68;;;3.23;50.65
49709;BME280;35601;55.902;13.606;2023-03-15T10:19:40;100010.65;;;2.75;50.13
49709;BME280;35601;55.902;13.606;2023-03-15T10:22:08;100006.14;;;3.29;50.01
49709;BME280;35601;55.902;13.606;2023-03-15T10:24:33;100009.68;;;3.50;48.66
49709;BME280;35601;55.902;13.606;2023-03-15T10:26:52;100008.90;;;3.42;47.94
49709;BME280;35601;55.902;13.606;2023-03-15T10:29:20;100016.41;;;3.37;48.23
49709;BME280;35601;55.902;13.606;2023-03-15T10:31:44;100020.77;;;3.55;47.74
49709;BME280;35601;55.902;13.606;2023-03-15T10:34:08;100020.53;;;3.02;47.66
49709;BME280;35601;55.902;13.606;2023-03-15T10:36:33;100018.38;;;3.22;49.05
49709;BME280;35601;55.902;13.606;2023-03-15T10:38:59;100031.61;;;3.24;49.29
49709;BME280;35601;55.902;13.606;2023-03-15T10:41:34;100028.13;;;3.04;48.28
49709;BME280;35601;55.902;13.606;2023-03-15T10:43:56;100029.82;;;2.79;48.67
49709;BME280;35601;55.902;13.606;2023-03-15T10:46:21;100032.00;;;3.13;49.36
49709;BME280;35601;55.902;13.606;2023-03-15T10:51:12;100040.92;;;3.26;48.70
49709;BME280;35601;55.902;13.606;2023-03-15T10:53:31;100036.58;;;3.10;47.02
49709;BME280;35601;55.902;13.606;2023-03-15T10:55:58;100028.00;;;3.44;49.87
49709;BME280;35601;55.902;13.606;2023-03-15T10:58:26;100027.77;;;3.77;48.10
49709;BME280;35601;55.902;13.606;2023-03-15T11:00:50;100040.80;;;4.37;47.95
49709;BME280;35601;55.902;13.606;2023-03-15T11:03:17;100037.68;;;4.45;47.61
49709;BME280;35601;55.902;13.606;2023-03-15T11:05:40;100040.81;;;4.51;44.72
49709;BME280;35601;55.902;13.606;2023-03-15T11:08:02;100041.33;;;4.19;44.47
49709;BME280;35601;55.902;13.606;2023-03-15T11:10:33;100034.65;;;4.25;44.49
49709;BME280;35601;55.902;13.606;2023-03-15T11:15:18;100044.69;;;4.63;43.93
49709;BME280;35601;55.902;13.606;2023-03-15T11:17:46;100038.86;;;4.50;43.10
49709;BME280;35601;55.902;13.606;2023-03-15T11:22:34;100042.07;;;4.65;43.47
49709;BME280;35601;55.902;13.606;2023-03-15T11:24:59;100041.60;;;4.73;43.05
49709;BME280;35601;55.902;13.606;2023-03-15T11:27:25;100046.90;;;4.86;43.34
49709;BME280;35601;55.902;13.606;2023-03-15T11:29:53;100056.02;;;4.54;42.98
49709;BME280;35601;55.902;13.606;2023-03-15T11:32:18;100062.91;;;4.41;43.43
49709;BME280;35601;55.902;13.606;2023-03-15T11:34:45;100067.19;;;4.23;46.22
49709;BME280;35601;55.902;13.606;2023-03-15T11:37:13;100068.65;;;3.66;50.48
49709;BME280;35601;55.902;13.606;2023-03-15T11:39:37;100073.73;;;3.48;51.93
49709;BME280;35601;55.902;13.606;2023-03-15T11:41:58;100073.48;;;3.87;51.87
49709;BME280;35601;55.902;13.606;2023-03-15T11:44:29;100074.42;;;4.02;49.47
49709;BME280;35601;55.902;13.606;2023-03-15T11:46:49;100078.41;;;3.87;47.68
49709;BME280;35601;55.902;13.606;2023-03-15T11:49:16;100080.40;;;3.67;47.22
49709;BME280;35601;55.902;13.606;2023-03-15T11:51:38;100080.04;;;3.47;48.81
49709;BME280;35601;55.902;13.606;2023-03-15T11:54:07;100085.98;;;4.04;45.96
49709;BME280;35601;55.902;13.606;2023-03-15T11:59:03;100090.45;;;3.59;47.57
49709;BME280;35601;55.902;13.606;2023-03-15T12:01:24;100087.00;;;3.66;48.24
49709;BME280;35601;55.902;13.606;2023-03-15T12:03:44;100085.83;;;4.04;48.62
49709;BME280;35601;55.902;13.606;2023-03-15T12:08:46;100094.88;;;4.40;47.18
49709;BME280;35601;55.902;13.606;2023-03-15T12:11:00;100099.37;;;4.48;44.56
49709;BME280;35601;55.902;13.606;2023-03-15T12:13:27;100100.34;;;4.75;43.81
49709;BME280;35601;55.902;13.606;2023-03-15T12:15:51;100104.59;;;4.49;43.60
49709;BME280;35601;55.902;13.606;2023-03-15T12:18:19;100103.36;;;4.91;42.98
49709;BME280;35601;55.902;13.606;2023-03-15T12:20:49;100102.44;;;5.13;43.15
49709;BME280;35601;55.902;13.606;2023-03-15T12:25:36;100109.91;;;5.15;42.13
49709;BME280;35601;55.902;13.606;2023-03-15T12:27:57;100108.25;;;4.87;41.23
49709;BME280;35601;55.902;13.606;2023-03-15T12:30:25;100113.54;;;4.49;42.26
49709;BME280;35601;55.902;13.606;2023-03-15T12:32:50;100113.07;;;4.82;43.04
49709;BME280;35601;55.902;13.606;2023-03-15T12:35:18;100116.20;;;4.49;43.70
49709;BME280;35601;55.902;13.606;2023-03-15T12:37:43;100117.59;;;4.59;43.71
49709;BME280;35601;55.902;13.606;2023-03-15T12:44:54;100118.97;;;4.57;40.05
49709;BME280;35601;55.902;13.606;2023-03-15T12:47:20;100120.68;;;4.11;40.70
49709;BME280;35601;55.902;13.606;2023-03-15T12:49:45;100123.01;;;4.32;40.72
49709;BME280;35601;55.902;13.606;2023-03-15T12:52:26;100130.20;;;4.23;42.09
49709;BME280;35601;55.902;13.606;2023-03-15T12:54:41;100135.43;;;4.29;42.13
49709;BME280;35601;55.902;13.606;2023-03-15T12:57:03;100138.42;;;4.15;41.36
49709;BME280;35601;55.902;13.606;2023-03-15T12:59:31;100144.66;;;4.18;41.29
49709;BME280;35601;55.902;13.606;2023-03-15T13:01:51;100145.08;;;4.09;41.04
49709;BME280;35601;55.902;13.606;2023-03-15T13:04:16;100146.72;;;4.01;43.20